CYOY

C J.H.L.(Joe) Lecomte) Heliport

Valcartier, Quebec, Canada
METAR CYOY 170700Z AUTO 00000KT 9SM M04/M05 A2982 RMK SLP109
Observed Flight Rules
Dec-17 @ 07:00 UTC (55 minutes ago)
Visibility
9 miles
Temperatures Readings
Current -4°C / 25°F
Dewpoint -5°C / 23°F
Humidity 93%
Altimeter 29.82" Hg
Pressure 1010.9 hPa
Elevation 168
METAR CYOY 170700Z AUTO 00000KT 9SM M04/M05 A2982 RMK SLP109
Observed Flight Rules
Dec-17 @ 07:00 UTC
(55 minutes ago)
Temperature Dewpoint
-4°C / 25°F -5°C / 23°F
Humidity Altimeter Pressure
93% 29.82" Hg 1010.9 hPa